createdAt,value
2019-05-19T00:00:34.938Z,100758.73
2019-05-19T00:03:03.535Z,100758.83
2019-05-19T00:05:32.158Z,100760.40
2019-05-19T00:08:01.175Z,100751.33
2019-05-19T00:10:29.847Z,100749.48
2019-05-19T00:12:58.420Z,100744.95
2019-05-19T00:15:27.011Z,100748.19
2019-05-19T00:17:55.547Z,100744.14
2019-05-19T00:20:24.131Z,100738.61
2019-05-19T00:22:52.847Z,100739.95
2019-05-19T00:25:21.540Z,100744.77
2019-05-19T00:27:50.031Z,100746.28
2019-05-19T00:30:18.894Z,100751.86
2019-05-19T00:32:47.689Z,100749.41
2019-05-19T00:35:16.238Z,100747.17
2019-05-19T00:37:44.860Z,100743.23
2019-05-19T00:40:13.466Z,100740.78
2019-05-19T00:42:41.964Z,100740.05
2019-05-19T00:45:11.001Z,100737.77
2019-05-19T00:47:39.621Z,100738.73
2019-05-19T00:50:08.222Z,100734.24
2019-05-19T00:52:36.768Z,100731.69
2019-05-19T00:55:05.959Z,100729.45
2019-05-19T00:57:34.883Z,100726.65
2019-05-19T01:00:04.465Z,100729.27
2019-05-19T01:02:33.154Z,100723.12
2019-05-19T01:05:01.691Z,100723.34
2019-05-19T01:07:30.386Z,100722.63
2019-05-19T01:09:58.871Z,100720.80
2019-05-19T01:12:27.461Z,100724.05
2019-05-19T01:14:56.145Z,100720.12
2019-05-19T01:17:24.632Z,100719.66
2019-05-19T01:19:55.892Z,100715.66
2019-05-19T01:22:23.353Z,100721.22
2019-05-19T01:24:51.989Z,100721.81
2019-05-19T01:27:20.617Z,100719.59
2019-05-19T01:29:49.379Z,100723.50
2019-05-19T01:32:18.044Z,100721.52
2019-05-19T01:34:46.619Z,100720.05
2019-05-19T01:37:15.151Z,100721.05
2019-05-19T01:39:43.649Z,100725.19
2019-05-19T01:42:12.452Z,100714.18
2019-05-19T01:44:41.068Z,100718.68
2019-05-19T01:47:09.668Z,100713.87
2019-05-19T01:49:38.208Z,100714.35
2019-05-19T01:52:06.811Z,100711.64
2019-05-19T01:54:35.295Z,100711.73
2019-05-19T01:57:03.913Z,100714.66
2019-05-19T01:59:32.641Z,100713.87
2019-05-19T02:02:01.553Z,100714.73
2019-05-19T02:04:30.101Z,100717.09
2019-05-19T02:06:58.956Z,100717.41
2019-05-19T02:09:27.482Z,100712.05
2019-05-19T02:11:56.087Z,100707.80
2019-05-19T02:14:24.717Z,100699.83
2019-05-19T02:16:53.339Z,100705.35
2019-05-19T02:19:21.940Z,100701.00
2019-05-19T02:21:50.520Z,100695.30
2019-05-19T02:24:19.109Z,100693.99
2019-05-19T02:26:47.995Z,100686.67
2019-05-19T02:29:16.550Z,100683.17
2019-05-19T02:31:45.033Z,100683.59
2019-05-19T02:34:13.585Z,100677.23
2019-05-19T02:36:42.117Z,100673.47
2019-05-19T02:39:10.655Z,100675.70
2019-05-19T02:41:39.182Z,100670.64
2019-05-19T02:44:07.743Z,100666.38
2019-05-19T02:46:36.282Z,100661.80
2019-05-19T02:49:04.864Z,100664.53
2019-05-19T02:51:34.788Z,100670.77
2019-05-19T02:54:04.386Z,100671.42
2019-05-19T02:56:33.139Z,100671.09
2019-05-19T02:59:01.705Z,100669.34
2019-05-19T03:01:34.615Z,100676.67
2019-05-19T03:04:03.242Z,100674.67
2019-05-19T03:06:31.806Z,100675.00
2019-05-19T03:09:00.442Z,100676.98
2019-05-19T03:11:29.093Z,100678.30
2019-05-19T03:13:57.682Z,100676.95
2019-05-19T03:16:26.244Z,100673.64
2019-05-19T03:18:55.212Z,100675.70
2019-05-19T03:21:23.765Z,100679.50
2019-05-19T03:23:52.287Z,100678.41
2019-05-19T03:26:20.836Z,100683.51
2019-05-19T03:28:49.404Z,100679.39
2019-05-19T03:31:19.769Z,100671.61
2019-05-19T03:33:52.951Z,100676.20
2019-05-19T03:36:21.590Z,100674.23
2019-05-19T03:38:50.278Z,100673.95
2019-05-19T03:41:18.753Z,100670.27
2019-05-19T03:43:47.287Z,100671.81
2019-05-19T03:46:15.854Z,100664.50
2019-05-19T03:48:44.473Z,100670.28
2019-05-19T03:51:29.138Z,100670.13
2019-05-19T03:53:43.244Z,100672.47
2019-05-19T03:56:11.718Z,100668.55
2019-05-19T03:58:40.246Z,100669.09
2019-05-19T04:01:08.820Z,100668.63
2019-05-19T04:03:37.398Z,100666.06
2019-05-19T04:06:06.021Z,100671.98
2019-05-19T04:08:34.569Z,100673.73
2019-05-19T04:11:03.174Z,100680.63
2019-05-19T04:13:31.770Z,100680.27
2019-05-19T04:16:00.298Z,100679.84
2019-05-19T04:18:28.884Z,100681.61
2019-05-19T04:20:57.634Z,100682.10
2019-05-19T04:23:26.259Z,100686.36
2019-05-19T04:25:54.841Z,100679.97
2019-05-19T04:28:23.323Z,100678.97
2019-05-19T04:30:51.999Z,100678.05
2019-05-19T04:33:20.467Z,100678.28
2019-05-19T04:35:50.674Z,100686.77
2019-05-19T04:38:19.302Z,100683.73
2019-05-19T04:40:47.820Z,100686.77
2019-05-19T04:43:16.417Z,100691.16
2019-05-19T04:45:45.035Z,100689.38
2019-05-19T04:48:13.727Z,100686.62
2019-05-19T04:50:42.284Z,100693.34
2019-05-19T04:53:10.767Z,100688.57
2019-05-19T04:55:39.368Z,100690.34
2019-05-19T04:58:07.926Z,100692.48
2019-05-19T05:00:36.496Z,100691.47
2019-05-19T05:03:05.105Z,100694.53
2019-05-19T05:05:33.619Z,100693.27
2019-05-19T05:08:02.238Z,100695.13
2019-05-19T05:10:34.033Z,100697.48
2019-05-19T05:13:02.600Z,100698.44
2019-05-19T05:15:31.241Z,100694.39
2019-05-19T05:17:59.855Z,100701.75
2019-05-19T05:20:28.512Z,100699.42
2019-05-19T05:22:57.015Z,100711.10
2019-05-19T05:25:25.580Z,100703.98
2019-05-19T05:27:54.129Z,100706.98
2019-05-19T05:30:22.707Z,100700.80
2019-05-19T05:32:51.356Z,100701.09
2019-05-19T05:35:19.990Z,100709.98
2019-05-19T05:37:49.053Z,100706.86
2019-05-19T05:40:17.763Z,100711.19
2019-05-19T05:42:46.279Z,100709.01
2019-05-19T05:45:14.911Z,100714.05
2019-05-19T05:47:43.392Z,100720.21
2019-05-19T05:50:11.980Z,100724.20
2019-05-19T05:52:40.519Z,100727.70
2019-05-19T05:55:09.015Z,100721.48
2019-05-19T05:57:37.686Z,100720.48
2019-05-19T06:00:07.608Z,100718.73
2019-05-19T06:02:36.262Z,100722.54
2019-05-19T06:05:05.737Z,100727.84
2019-05-19T06:07:34.216Z,100724.55
2019-05-19T06:10:02.727Z,100727.77
2019-05-19T06:12:31.246Z,100723.94
2019-05-19T06:14:59.811Z,100723.53
2019-05-19T06:17:28.320Z,100723.38
2019-05-19T06:19:56.856Z,100713.45
2019-05-19T06:22:25.355Z,100723.00
2019-05-19T06:24:54.111Z,100718.37
2019-05-19T06:27:22.665Z,100723.06
2019-05-19T06:29:51.148Z,100721.41
2019-05-19T06:32:27.348Z,100719.73
2019-05-19T06:34:55.824Z,100720.12
2019-05-19T06:37:24.313Z,100726.62
2019-05-19T06:39:52.862Z,100731.41
2019-05-19T06:42:21.537Z,100733.48
2019-05-19T06:44:50.108Z,100734.30
2019-05-19T06:47:18.824Z,100732.96
2019-05-19T06:49:47.429Z,100726.67
2019-05-19T06:52:15.996Z,100726.73
2019-05-19T06:54:44.514Z,100727.50
2019-05-19T06:57:13.146Z,100721.66
2019-05-19T06:59:41.727Z,100722.93
2019-05-19T07:02:10.320Z,100723.83
2019-05-19T07:04:38.906Z,100722.32
2019-05-19T07:07:07.460Z,100722.08
2019-05-19T07:09:36.027Z,100722.36
2019-05-19T07:12:04.552Z,100713.59
2019-05-19T07:14:33.075Z,100712.27
2019-05-19T07:17:01.729Z,100714.38
2019-05-19T07:19:30.440Z,100709.08
2019-05-19T07:21:58.961Z,100714.86
2019-05-19T07:24:27.486Z,100718.09
2019-05-19T07:26:56.049Z,100713.64
2019-05-19T07:29:24.698Z,100712.44
2019-05-19T07:31:53.246Z,100717.05
2019-05-19T07:34:21.844Z,100715.61
2019-05-19T07:36:50.352Z,100712.02
2019-05-19T07:39:19.046Z,100709.54
2019-05-19T07:41:47.665Z,100709.92
2019-05-19T07:44:16.192Z,100714.08
2019-05-19T07:46:44.803Z,100714.67
2019-05-19T07:49:13.353Z,100710.98
2019-05-19T07:51:41.939Z,100710.17
2019-05-19T07:54:10.521Z,100703.16
2019-05-19T07:56:39.047Z,100703.64
2019-05-19T07:59:08.094Z,100703.79
2019-05-19T08:01:36.800Z,100699.96
2019-05-19T08:04:05.356Z,100699.60
2019-05-19T08:06:33.923Z,100701.63
2019-05-19T08:09:02.437Z,100696.88
2019-05-19T08:11:31.081Z,100703.09
2019-05-19T08:13:59.812Z,100697.31
2019-05-19T08:16:28.331Z,100694.55
2019-05-19T08:18:57.406Z,100700.31
2019-05-19T08:21:26.054Z,100697.94
2019-05-19T08:24:00.303Z,100691.92
2019-05-19T08:26:24.855Z,100696.72
2019-05-19T08:28:53.543Z,100696.86
2019-05-19T08:31:22.120Z,100695.31
2019-05-19T08:33:50.704Z,100699.28
2019-05-19T08:36:19.392Z,100699.89
2019-05-19T08:38:47.986Z,100705.61
2019-05-19T08:41:16.558Z,100706.52
2019-05-19T08:43:45.139Z,100705.50
2019-05-19T08:46:13.851Z,100702.52
2019-05-19T08:48:42.450Z,100707.06
2019-05-19T08:51:11.007Z,100701.27
2019-05-19T08:53:41.221Z,100702.58
2019-05-19T08:56:11.058Z,100691.66
2019-05-19T08:58:39.624Z,100696.16
2019-05-19T09:01:27.599Z,100689.01
2019-05-19T09:03:56.325Z,100692.48
2019-05-19T09:06:24.828Z,100689.64
2019-05-19T09:08:53.348Z,100695.31
2019-05-19T09:11:21.929Z,100694.02
2019-05-19T09:13:50.484Z,100690.30
2019-05-19T09:16:19.067Z,100687.64
2019-05-19T09:18:47.648Z,100684.45
2019-05-19T09:21:18.093Z,100686.99
2019-05-19T09:23:46.587Z,100678.78
2019-05-19T09:26:15.117Z,100678.70
2019-05-19T09:28:43.637Z,100679.66
2019-05-19T09:31:12.194Z,100675.28
2019-05-19T09:33:40.750Z,100681.08
2019-05-19T09:36:09.366Z,100679.14
2019-05-19T09:38:37.900Z,100676.52
2019-05-19T09:41:06.386Z,100675.19
2019-05-19T09:43:34.905Z,100672.55
2019-05-19T09:46:03.557Z,100676.86
2019-05-19T09:48:32.146Z,100676.70
2019-05-19T09:51:00.901Z,100672.86
2019-05-19T09:53:29.443Z,100674.66
2019-05-19T09:55:57.920Z,100682.94
2019-05-19T09:58:26.433Z,100680.83
2019-05-19T10:00:54.941Z,100682.14
2019-05-19T10:03:23.524Z,100680.60
2019-05-19T10:05:52.016Z,100673.26
2019-05-19T10:08:23.776Z,100676.01
2019-05-19T10:11:25.618Z,100672.65
2019-05-19T10:13:54.183Z,100680.09
2019-05-19T10:16:23.049Z,100677.20
2019-05-19T10:18:51.573Z,100673.58
2019-05-19T10:21:20.156Z,100671.23
2019-05-19T10:23:48.731Z,100667.89
2019-05-19T10:26:17.481Z,100668.64
2019-05-19T10:28:46.129Z,100663.77
2019-05-19T10:31:14.744Z,100661.16
2019-05-19T10:33:43.305Z,100657.58
2019-05-19T10:36:11.822Z,100655.86
2019-05-19T10:38:40.392Z,100650.80
2019-05-19T10:41:09.178Z,100648.83
2019-05-19T10:43:37.729Z,100655.04
2019-05-19T10:46:06.206Z,100650.75
2019-05-19T10:48:34.716Z,100646.30
2019-05-19T10:51:03.311Z,100646.61
2019-05-19T10:53:31.887Z,100652.14
2019-05-19T10:56:00.481Z,100642.17
2019-05-19T10:58:28.967Z,100638.93
2019-05-19T11:00:57.514Z,100643.80
2019-05-19T11:03:26.126Z,100635.71
2019-05-19T11:05:54.698Z,100641.61
2019-05-19T11:08:23.320Z,100639.20
2019-05-19T11:10:51.958Z,100633.89
2019-05-19T11:13:20.518Z,100634.56
2019-05-19T11:15:49.206Z,100630.24
2019-05-19T11:18:17.754Z,100629.30
2019-05-19T11:20:46.384Z,100631.11
2019-05-19T11:23:16.731Z,100631.23
2019-05-19T11:25:51.415Z,100622.03
2019-05-19T11:28:15.784Z,100621.39
2019-05-19T11:30:44.750Z,100624.52
2019-05-19T11:33:13.537Z,100618.89
2019-05-19T11:35:42.536Z,100616.77
2019-05-19T11:38:11.330Z,100614.92
2019-05-19T11:40:39.866Z,100603.02
2019-05-19T11:43:08.503Z,100603.47
2019-05-19T11:45:37.099Z,100603.09
2019-05-19T11:48:05.612Z,100607.61
2019-05-19T11:50:34.164Z,100606.11
2019-05-19T11:53:02.704Z,100598.89
2019-05-19T11:55:31.227Z,100596.06
2019-05-19T11:57:59.760Z,100599.16
2019-05-19T12:00:28.415Z,100600.68
2019-05-19T12:02:56.976Z,100595.08
2019-05-19T12:05:25.557Z,100594.55
2019-05-19T12:07:54.077Z,100592.11
2019-05-19T12:10:22.576Z,100591.95
2019-05-19T12:12:51.182Z,100600.22
2019-05-19T12:15:19.788Z,100596.38
2019-05-19T12:17:48.268Z,100598.00
2019-05-19T12:20:16.783Z,100595.72
2019-05-19T12:22:45.338Z,100596.22
2019-05-19T12:25:14.205Z,100596.06
2019-05-19T12:27:42.807Z,100596.17
2019-05-19T12:30:12.921Z,100587.60
2019-05-19T12:32:41.519Z,100588.91
2019-05-19T12:35:10.086Z,100587.86
2019-05-19T12:37:38.565Z,100584.05
2019-05-19T12:40:07.107Z,100588.21
2019-05-19T12:42:35.584Z,100582.86
2019-05-19T12:45:08.896Z,100589.00
2019-05-19T12:47:37.423Z,100591.97
2019-05-19T12:50:06.275Z,100582.30
2019-05-19T12:52:34.889Z,100580.14
2019-05-19T12:55:03.838Z,100575.30
2019-05-19T12:57:32.445Z,100581.56
2019-05-19T13:00:00.938Z,100578.89
2019-05-19T13:02:29.513Z,100574.23
2019-05-19T13:05:05.032Z,100573.67
2019-05-19T13:07:28.288Z,100577.01
2019-05-19T13:09:56.820Z,100579.14
2019-05-19T13:12:25.395Z,100585.13
2019-05-19T13:14:53.968Z,100588.33
2019-05-19T13:17:22.553Z,100580.68
2019-05-19T13:19:51.221Z,100570.38
2019-05-19T13:22:19.836Z,100567.00
2019-05-19T13:24:48.427Z,100557.88
2019-05-19T13:27:17.074Z,100557.25
2019-05-19T13:29:45.667Z,100559.37
2019-05-19T13:32:14.254Z,100555.45
2019-05-19T13:34:42.834Z,100553.80
2019-05-19T13:37:11.679Z,100552.61
2019-05-19T13:39:40.277Z,100552.45
2019-05-19T13:42:08.868Z,100551.44
2019-05-19T13:44:37.449Z,100550.56
2019-05-19T13:47:06.029Z,100551.30
2019-05-19T13:49:34.605Z,100558.05
2019-05-19T13:52:03.331Z,100562.30
2019-05-19T13:54:31.916Z,100570.33
2019-05-19T13:57:11.954Z,100566.16
2019-05-19T13:59:30.670Z,100563.61
2019-05-19T14:01:59.483Z,100561.02
2019-05-19T14:04:28.104Z,100561.62
2019-05-19T14:06:56.690Z,100558.95
2019-05-19T14:09:25.349Z,100557.17
2019-05-19T14:11:53.931Z,100554.47
2019-05-19T14:14:22.453Z,100550.70
2019-05-19T14:16:51.129Z,100553.28
2019-05-19T14:19:19.660Z,100550.06
2019-05-19T14:21:48.262Z,100545.97
2019-05-19T14:24:16.838Z,100544.30
2019-05-19T14:26:45.431Z,100546.94
2019-05-19T14:29:13.981Z,100543.45
2019-05-19T14:31:42.542Z,100545.74
2019-05-19T14:34:11.486Z,100552.19
2019-05-19T14:36:40.065Z,100560.92
2019-05-19T14:39:08.686Z,100566.22
2019-05-19T14:41:38.887Z,100565.77
2019-05-19T14:44:07.672Z,100568.00
2019-05-19T14:46:36.183Z,100576.48
2019-05-19T14:49:04.723Z,100570.39
2019-05-19T14:51:33.382Z,100567.22
2019-05-19T14:54:02.042Z,100560.38
2019-05-19T14:56:33.584Z,100564.84
2019-05-19T14:59:00.922Z,100568.25
2019-05-19T15:01:29.475Z,100567.29
2019-05-19T15:03:58.070Z,100569.84
2019-05-19T15:06:26.660Z,100571.63
2019-05-19T15:08:55.181Z,100573.78
2019-05-19T15:11:23.798Z,100572.69
2019-05-19T15:13:52.449Z,100566.50
2019-05-19T15:16:21.019Z,100568.48
2019-05-19T15:18:49.656Z,100559.91
2019-05-19T15:21:18.244Z,100568.14
2019-05-19T15:23:46.809Z,100565.94
2019-05-19T15:26:15.433Z,100570.67
2019-05-19T15:28:44.026Z,100555.45
2019-05-19T15:31:12.582Z,100560.32
2019-05-19T15:33:41.280Z,100569.19
2019-05-19T15:36:09.839Z,100574.53
2019-05-19T15:38:38.427Z,100581.74
2019-05-19T15:41:06.937Z,100590.43
2019-05-19T15:43:35.425Z,100590.30
2019-05-19T15:46:04.013Z,100593.92
2019-05-19T15:48:32.515Z,100586.15
2019-05-19T15:51:01.201Z,100587.47
2019-05-19T15:53:29.790Z,100586.75
2019-05-19T15:55:58.276Z,100594.97
2019-05-19T15:58:26.777Z,100585.64
2019-05-19T16:00:55.362Z,100581.94
2019-05-19T16:03:23.982Z,100579.31
2019-05-19T16:05:52.554Z,100578.62
2019-05-19T16:08:21.099Z,100573.13
2019-05-19T16:10:49.592Z,100566.73
2019-05-19T16:13:21.846Z,100559.06
2019-05-19T16:15:48.607Z,100550.68
2019-05-19T16:18:17.471Z,100547.90
2019-05-19T16:20:46.239Z,100543.94
2019-05-19T16:23:14.815Z,100545.80
2019-05-19T16:25:43.446Z,100549.88
2019-05-19T16:28:12.238Z,100553.80
2019-05-19T16:30:40.820Z,100563.69
2019-05-19T16:33:09.389Z,100567.81
2019-05-19T16:35:38.050Z,100572.47
2019-05-19T16:38:06.668Z,100567.44
2019-05-19T16:40:35.253Z,100559.69
2019-05-19T16:43:03.844Z,100557.78
2019-05-19T16:45:32.464Z,100562.64
2019-05-19T16:48:01.061Z,100555.66
2019-05-19T16:50:29.603Z,100554.12
2019-05-19T16:52:58.115Z,100550.02
2019-05-19T16:55:28.387Z,100553.88
2019-05-19T16:57:56.994Z,100557.19
2019-05-19T17:00:26.426Z,100562.02
2019-05-19T17:02:55.035Z,100578.66
2019-05-19T17:05:23.636Z,100586.88
2019-05-19T17:07:52.192Z,100592.28
2019-05-19T17:10:20.757Z,100598.67
2019-05-19T17:12:49.369Z,100604.36
2019-05-19T17:15:18.404Z,100609.92
2019-05-19T17:17:47.154Z,100616.86
2019-05-19T17:20:15.669Z,100614.61
2019-05-19T17:22:44.200Z,100614.42
2019-05-19T17:25:12.776Z,100617.41
2019-05-19T17:27:41.356Z,100622.73
2019-05-19T17:30:10.204Z,100620.53
2019-05-19T17:32:38.760Z,100621.34
2019-05-19T17:35:07.273Z,100629.09
2019-05-19T17:37:35.762Z,100634.59
2019-05-19T17:40:05.183Z,100638.89
2019-05-19T17:42:37.037Z,100647.36
2019-05-19T17:45:05.433Z,100646.41
2019-05-19T17:47:34.177Z,100653.75
2019-05-19T17:50:02.711Z,100649.33
2019-05-19T17:52:31.481Z,100648.04
2019-05-19T17:55:00.353Z,100657.06
2019-05-19T17:57:28.914Z,100664.39
2019-05-19T17:59:57.421Z,100680.30
2019-05-19T18:02:25.981Z,100686.42
2019-05-19T18:04:54.590Z,100692.13
2019-05-19T18:07:23.118Z,100694.73
2019-05-19T18:09:51.703Z,100702.56
2019-05-19T18:12:20.184Z,100710.63
2019-05-19T18:14:48.730Z,100715.13
2019-05-19T18:17:18.122Z,100710.88
2019-05-19T18:19:46.699Z,100721.91
2019-05-19T18:22:15.250Z,100730.16
2019-05-19T18:24:43.815Z,100725.67
2019-05-19T18:27:12.397Z,100726.69
2019-05-19T18:29:40.907Z,100724.61
2019-05-19T18:32:09.432Z,100722.75
2019-05-19T18:34:38.092Z,100728.31
2019-05-19T18:37:06.619Z,100735.34
2019-05-19T18:39:35.204Z,100740.42
2019-05-19T18:42:03.828Z,100754.84
2019-05-19T18:44:32.405Z,100758.33
2019-05-19T18:47:01.021Z,100759.31
2019-05-19T18:49:29.577Z,100759.92
2019-05-19T18:51:58.311Z,100765.73
2019-05-19T18:54:27.096Z,100757.71
2019-05-19T18:56:55.746Z,100758.95
2019-05-19T18:59:24.297Z,100756.32
2019-05-19T19:01:52.809Z,100754.84
2019-05-19T19:04:21.351Z,100749.25
2019-05-19T19:06:50.055Z,100747.45
2019-05-19T19:09:18.655Z,100745.47
2019-05-19T19:11:47.327Z,100743.03
2019-05-19T19:14:15.937Z,100743.91
2019-05-19T19:16:44.429Z,100742.25
2019-05-19T19:19:13.172Z,100744.17
2019-05-19T19:21:41.724Z,100746.05
2019-05-19T19:24:10.305Z,100745.63
2019-05-19T19:26:38.912Z,100745.39
2019-05-19T19:29:07.433Z,100750.25
2019-05-19T19:31:47.693Z,100752.45
2019-05-19T19:34:06.173Z,100747.69
2019-05-19T19:39:01.428Z,100749.72
2019-05-19T19:41:30.028Z,100751.77
2019-05-19T19:43:59.447Z,100752.22
2019-05-19T19:46:28.064Z,100748.33
2019-05-19T19:48:56.659Z,100747.78
2019-05-19T19:51:25.236Z,100755.65
2019-05-19T19:53:53.839Z,100763.97
2019-05-19T19:56:22.536Z,100757.03
2019-05-19T19:58:51.041Z,100753.77
2019-05-19T20:01:19.703Z,100759.67
2019-05-19T20:03:48.362Z,100763.97
2019-05-19T20:06:16.918Z,100762.31
2019-05-19T20:08:45.471Z,100766.33
2019-05-19T20:11:14.076Z,100771.68
2019-05-19T20:13:42.656Z,100766.63
2019-05-19T20:16:11.229Z,100767.08
2019-05-19T20:18:39.844Z,100762.80
2019-05-19T20:21:08.590Z,100764.31
2019-05-19T20:23:37.153Z,100763.63
2019-05-19T20:26:05.703Z,100753.34
2019-05-19T20:28:34.297Z,100746.30
2019-05-19T20:31:02.790Z,100740.05
2019-05-19T20:33:31.390Z,100739.81
2019-05-19T20:36:01.134Z,100738.64
2019-05-19T20:38:29.705Z,100740.02
2019-05-19T20:40:58.261Z,100745.05
2019-05-19T20:43:26.829Z,100746.29
2019-05-19T20:45:55.414Z,100740.30
2019-05-19T20:48:24.233Z,100737.77
2019-05-19T20:50:52.802Z,100738.12
2019-05-19T20:53:21.382Z,100741.53
2019-05-19T20:55:49.978Z,100747.02
2019-05-19T20:58:18.482Z,100750.16
2019-05-19T21:00:50.493Z,100752.34
2019-05-19T21:03:17.441Z,100750.98
2019-05-19T21:05:46.127Z,100754.00
2019-05-19T21:08:14.713Z,100753.03
2019-05-19T21:10:43.219Z,100757.09
2019-05-19T21:13:11.838Z,100754.66
2019-05-19T21:15:40.448Z,100759.91
2019-05-19T21:18:08.949Z,100754.11
2019-05-19T21:20:37.467Z,100756.73
2019-05-19T21:23:05.955Z,100761.09
2019-05-19T21:25:35.094Z,100764.02
2019-05-19T21:28:03.619Z,100759.95
2019-05-19T21:30:32.188Z,100760.82
2019-05-19T21:33:00.850Z,100766.48
2019-05-19T21:35:29.437Z,100766.31
2019-05-19T21:37:57.993Z,100770.22
2019-05-19T21:40:26.549Z,100767.67
2019-05-19T21:42:55.049Z,100762.02
2019-05-19T21:45:23.534Z,100757.92
2019-05-19T21:47:52.008Z,100763.47
2019-05-19T21:50:20.528Z,100761.41
2019-05-19T21:52:49.098Z,100752.28
2019-05-19T21:55:17.633Z,100750.59
2019-05-19T21:57:46.191Z,100748.48
2019-05-19T22:00:14.798Z,100749.47
2019-05-19T22:02:43.369Z,100751.02
2019-05-19T22:05:11.883Z,100758.32
2019-05-19T22:08:00.140Z,100760.55
2019-05-19T22:10:28.686Z,100760.55
2019-05-19T22:12:57.182Z,100762.88
2019-05-19T22:15:25.752Z,100751.92
2019-05-19T22:17:54.495Z,100759.00
2019-05-19T22:20:23.065Z,100763.31
2019-05-19T22:22:51.667Z,100762.30
2019-05-19T22:25:20.239Z,100770.88
2019-05-19T22:27:48.807Z,100764.52
2019-05-19T22:30:17.364Z,100755.86
2019-05-19T22:32:45.941Z,100753.38
2019-05-19T22:35:14.417Z,100761.53
2019-05-19T22:37:42.986Z,100771.30
2019-05-19T22:40:11.682Z,100766.36
2019-05-19T22:42:40.248Z,100775.61
2019-05-19T22:45:08.901Z,100779.46
2019-05-19T22:47:37.450Z,100778.73
2019-05-19T22:50:08.699Z,100785.20
2019-05-19T22:52:37.269Z,100788.84
2019-05-19T22:55:06.487Z,100796.33
2019-05-19T22:57:35.031Z,100802.87
2019-05-19T23:00:03.577Z,100802.22
2019-05-19T23:02:32.304Z,100803.94
2019-05-19T23:05:00.785Z,100788.89
2019-05-19T23:07:29.294Z,100787.45
2019-05-19T23:09:57.865Z,100783.27
2019-05-19T23:12:26.481Z,100786.04
2019-05-19T23:14:54.958Z,100788.91
2019-05-19T23:17:23.429Z,100791.56
2019-05-19T23:19:51.939Z,100793.21
2019-05-19T23:22:20.431Z,100793.84
2019-05-19T23:24:49.065Z,100792.08
2019-05-19T23:27:17.639Z,100789.78
2019-05-19T23:29:46.203Z,100783.41
2019-05-19T23:32:14.786Z,100785.77
2019-05-19T23:34:43.308Z,100790.58
2019-05-19T23:37:11.869Z,100792.98
2019-05-19T23:39:40.353Z,100797.39
2019-05-19T23:42:08.850Z,100798.09
2019-05-19T23:44:37.379Z,100805.37
2019-05-19T23:47:06.012Z,100804.62
2019-05-19T23:49:34.640Z,100797.90
2019-05-19T23:52:03.318Z,100797.46
2019-05-19T23:54:32.360Z,100794.34
2019-05-19T23:57:00.861Z,100790.52
2019-05-19T23:59:29.355Z,100793.92
